sensor_id;sensor_type;location;lat;lon;timestamp;P1;durP1;ratioP1;P2;durP2;ratioP2
42876;SDS011;42341;40.498;72.818;2022-12-17T00:01:02;45.90;;;21.85;;
42876;SDS011;42341;40.498;72.818;2022-12-17T00:03:46;59.35;;;28.15;;
42876;SDS011;42341;40.498;72.818;2022-12-17T00:06:30;50.60;;;23.67;;
42876;SDS011;42341;40.498;72.818;2022-12-17T00:09:15;59.45;;;26.90;;
42876;SDS011;42341;40.498;72.818;2022-12-17T00:11:59;63.22;;;27.98;;
42876;SDS011;42341;40.498;72.818;2022-12-17T00:14:43;61.58;;;27.50;;
42876;SDS011;42341;40.498;72.818;2022-12-17T00:17:27;60.40;;;29.15;;
42876;SDS011;42341;40.498;72.818;2022-12-17T00:20:12;61.25;;;29.63;;
42876;SDS011;42341;40.498;72.818;2022-12-17T00:22:57;62.90;;;31.92;;
42876;SDS011;42341;40.498;72.818;2022-12-17T00:25:50;68.78;;;34.22;;
42876;SDS011;42341;40.498;72.818;2022-12-17T00:28:36;68.80;;;34.95;;
42876;SDS011;42341;40.498;72.818;2022-12-17T00:31:20;61.80;;;30.48;;
42876;SDS011;42341;40.498;72.818;2022-12-17T00:34:04;66.22;;;33.55;;
42876;SDS011;42341;40.498;72.818;2022-12-17T00:36:49;74.68;;;34.67;;
42876;SDS011;42341;40.498;72.818;2022-12-17T00:39:33;84.90;;;40.17;;
42876;SDS011;42341;40.498;72.818;2022-12-17T00:42:34;85.28;;;38.80;;
42876;SDS011;42341;40.498;72.818;2022-12-17T00:45:18;90.00;;;40.45;;
42876;SDS011;42341;40.498;72.818;2022-12-17T00:48:03;87.40;;;35.42;;
42876;SDS011;42341;40.498;72.818;2022-12-17T00:50:47;57.67;;;24.73;;
42876;SDS011;42341;40.498;72.818;2022-12-17T00:53:32;96.30;;;37.25;;
42876;SDS011;42341;40.498;72.818;2022-12-17T00:56:16;133.57;;;49.55;;
42876;SDS011;42341;40.498;72.818;2022-12-17T00:59:00;112.45;;;48.28;;
42876;SDS011;42341;40.498;72.818;2022-12-17T01:01:44;86.30;;;38.95;;
42876;SDS011;42341;40.498;72.818;2022-12-17T01:04:28;90.43;;;38.63;;
42876;SDS011;42341;40.498;72.818;2022-12-17T01:07:12;71.88;;;32.33;;
42876;SDS011;42341;40.498;72.818;2022-12-17T01:09:56;48.45;;;22.10;;
42876;SDS011;42341;40.498;72.818;2022-12-17T01:12:40;42.25;;;19.90;;
42876;SDS011;42341;40.498;72.818;2022-12-17T01:15:24;38.88;;;19.52;;
42876;SDS011;42341;40.498;72.818;2022-12-17T01:18:08;36.67;;;17.42;;
42876;SDS011;42341;40.498;72.818;2022-12-17T01:20:58;28.33;;;13.90;;
42876;SDS011;42341;40.498;72.818;2022-12-17T01:23:44;26.65;;;12.30;;
42876;SDS011;42341;40.498;72.818;2022-12-17T01:26:28;24.40;;;13.60;;
42876;SDS011;42341;40.498;72.818;2022-12-17T01:29:12;40.97;;;18.63;;
42876;SDS011;42341;40.498;72.818;2022-12-17T01:31:57;42.95;;;20.65;;
42876;SDS011;42341;40.498;72.818;2022-12-17T01:34:41;48.80;;;20.50;;
42876;SDS011;42341;40.498;72.818;2022-12-17T01:37:25;40.05;;;19.00;;
42876;SDS011;42341;40.498;72.818;2022-12-17T01:40:09;46.38;;;21.65;;
42876;SDS011;42341;40.498;72.818;2022-12-17T01:42:58;42.97;;;21.58;;
42876;SDS011;42341;40.498;72.818;2022-12-17T01:45:44;43.08;;;20.83;;
42876;SDS011;42341;40.498;72.818;2022-12-17T01:48:39;39.53;;;20.20;;
42876;SDS011;42341;40.498;72.818;2022-12-17T01:51:27;39.13;;;20.13;;
42876;SDS011;42341;40.498;72.818;2022-12-17T01:54:13;40.83;;;22.73;;
42876;SDS011;42341;40.498;72.818;2022-12-17T01:56:59;40.63;;;19.77;;
42876;SDS011;42341;40.498;72.818;2022-12-17T01:59:48;38.10;;;20.15;;
42876;SDS011;42341;40.498;72.818;2022-12-17T02:02:36;37.67;;;19.95;;
42876;SDS011;42341;40.498;72.818;2022-12-17T02:05:22;42.53;;;21.50;;
42876;SDS011;42341;40.498;72.818;2022-12-17T02:08:20;48.75;;;23.52;;
42876;SDS011;42341;40.498;72.818;2022-12-17T02:11:21;52.83;;;24.70;;
42876;SDS011;42341;40.498;72.818;2022-12-17T02:14:30;60.25;;;29.25;;
42876;SDS011;42341;40.498;72.818;2022-12-17T02:17:34;59.30;;;27.60;;
42876;SDS011;42341;40.498;72.818;2022-12-17T02:23:24;47.17;;;23.08;;
42876;SDS011;42341;40.498;72.818;2022-12-17T02:29:26;61.13;;;29.92;;
42876;SDS011;42341;40.498;72.818;2022-12-17T02:32:15;121.97;;;57.67;;
42876;SDS011;42341;40.498;72.818;2022-12-17T02:35:01;137.52;;;63.33;;
42876;SDS011;42341;40.498;72.818;2022-12-17T02:37:52;152.52;;;73.30;;
42876;SDS011;42341;40.498;72.818;2022-12-17T02:40:36;158.15;;;76.70;;
42876;SDS011;42341;40.498;72.818;2022-12-17T02:43:22;198.98;;;85.53;;
42876;SDS011;42341;40.498;72.818;2022-12-17T02:46:07;204.40;;;87.47;;
42876;SDS011;42341;40.498;72.818;2022-12-17T02:48:52;236.80;;;103.10;;
42876;SDS011;42341;40.498;72.818;2022-12-17T02:51:37;247.93;;;109.47;;
42876;SDS011;42341;40.498;72.818;2022-12-17T02:54:22;238.20;;;104.13;;
42876;SDS011;42341;40.498;72.818;2022-12-17T02:57:06;199.20;;;85.90;;
42876;SDS011;42341;40.498;72.818;2022-12-17T02:59:50;235.82;;;105.22;;
42876;SDS011;42341;40.498;72.818;2022-12-17T03:02:34;459.25;;;218.20;;
42876;SDS011;42341;40.498;72.818;2022-12-17T03:05:19;286.05;;;133.90;;
42876;SDS011;42341;40.498;72.818;2022-12-17T03:08:03;256.83;;;120.18;;
42876;SDS011;42341;40.498;72.818;2022-12-17T03:10:47;280.05;;;137.13;;
42876;SDS011;42341;40.498;72.818;2022-12-17T03:13:31;219.13;;;107.90;;
42876;SDS011;42341;40.498;72.818;2022-12-17T03:16:16;217.95;;;103.68;;
42876;SDS011;42341;40.498;72.818;2022-12-17T03:19:01;222.35;;;110.80;;
42876;SDS011;42341;40.498;72.818;2022-12-17T03:21:45;232.32;;;108.50;;
42876;SDS011;42341;40.498;72.818;2022-12-17T03:24:29;221.43;;;106.18;;
42876;SDS011;42341;40.498;72.818;2022-12-17T03:27:13;221.45;;;106.38;;
42876;SDS011;42341;40.498;72.818;2022-12-17T03:29:58;225.07;;;109.13;;
42876;SDS011;42341;40.498;72.818;2022-12-17T03:32:50;231.60;;;110.93;;
42876;SDS011;42341;40.498;72.818;2022-12-17T03:35:34;231.50;;;108.30;;
42876;SDS011;42341;40.498;72.818;2022-12-17T03:38:18;245.70;;;118.78;;
42876;SDS011;42341;40.498;72.818;2022-12-17T03:41:02;408.60;;;201.90;;
42876;SDS011;42341;40.498;72.818;2022-12-17T03:43:46;410.35;;;210.02;;
42876;SDS011;42341;40.498;72.818;2022-12-17T03:46:30;360.35;;;182.68;;
42876;SDS011;42341;40.498;72.818;2022-12-17T03:49:14;400.45;;;206.15;;
42876;SDS011;42341;40.498;72.818;2022-12-17T03:51:59;326.92;;;166.23;;
42876;SDS011;42341;40.498;72.818;2022-12-17T03:54:43;285.77;;;145.63;;
42876;SDS011;42341;40.498;72.818;2022-12-17T03:57:27;321.08;;;140.23;;
42876;SDS011;42341;40.498;72.818;2022-12-17T04:00:11;244.02;;;117.05;;
42876;SDS011;42341;40.498;72.818;2022-12-17T04:02:56;208.02;;;100.90;;
42876;SDS011;42341;40.498;72.818;2022-12-17T04:05:40;173.15;;;81.90;;
42876;SDS011;42341;40.498;72.818;2022-12-17T04:08:44;159.93;;;82.88;;
42876;SDS011;42341;40.498;72.818;2022-12-17T04:11:28;170.18;;;80.70;;
42876;SDS011;42341;40.498;72.818;2022-12-17T04:14:12;144.35;;;68.15;;
42876;SDS011;42341;40.498;72.818;2022-12-17T04:16:57;158.52;;;73.03;;
42876;SDS011;42341;40.498;72.818;2022-12-17T04:19:41;192.85;;;85.53;;
42876;SDS011;42341;40.498;72.818;2022-12-17T04:22:25;205.68;;;95.35;;
42876;SDS011;42341;40.498;72.818;2022-12-17T04:25:20;288.35;;;134.35;;
42876;SDS011;42341;40.498;72.818;2022-12-17T04:28:04;198.68;;;91.95;;
42876;SDS011;42341;40.498;72.818;2022-12-17T04:30:48;141.23;;;68.80;;
42876;SDS011;42341;40.498;72.818;2022-12-17T04:33:32;162.65;;;71.38;;
42876;SDS011;42341;40.498;72.818;2022-12-17T04:36:16;149.52;;;66.53;;
42876;SDS011;42341;40.498;72.818;2022-12-17T04:39:00;124.63;;;57.55;;
42876;SDS011;42341;40.498;72.818;2022-12-17T04:41:45;205.07;;;83.82;;
42876;SDS011;42341;40.498;72.818;2022-12-17T04:44:29;139.13;;;63.70;;
42876;SDS011;42341;40.498;72.818;2022-12-17T04:47:13;131.98;;;61.10;;
42876;SDS011;42341;40.498;72.818;2022-12-17T04:49:57;125.88;;;60.25;;
42876;SDS011;42341;40.498;72.818;2022-12-17T04:52:41;121.78;;;61.47;;
42876;SDS011;42341;40.498;72.818;2022-12-17T04:55:25;125.78;;;56.58;;
42876;SDS011;42341;40.498;72.818;2022-12-17T04:58:09;95.32;;;46.13;;
42876;SDS011;42341;40.498;72.818;2022-12-17T05:00:54;109.55;;;49.97;;
42876;SDS011;42341;40.498;72.818;2022-12-17T05:03:38;111.10;;;53.17;;
42876;SDS011;42341;40.498;72.818;2022-12-17T05:06:23;112.10;;;54.13;;
42876;SDS011;42341;40.498;72.818;2022-12-17T05:09:07;97.28;;;49.22;;
42876;SDS011;42341;40.498;72.818;2022-12-17T05:11:52;82.97;;;39.67;;
42876;SDS011;42341;40.498;72.818;2022-12-17T05:14:36;118.80;;;55.90;;
42876;SDS011;42341;40.498;72.818;2022-12-17T05:17:20;159.90;;;80.40;;
42876;SDS011;42341;40.498;72.818;2022-12-17T05:20:04;100.45;;;49.05;;
42876;SDS011;42341;40.498;72.818;2022-12-17T05:22:49;96.22;;;48.92;;
42876;SDS011;42341;40.498;72.818;2022-12-17T05:25:33;88.47;;;47.00;;
42876;SDS011;42341;40.498;72.818;2022-12-17T05:28:18;96.93;;;51.35;;
42876;SDS011;42341;40.498;72.818;2022-12-17T05:31:02;107.85;;;57.85;;
42876;SDS011;42341;40.498;72.818;2022-12-17T05:33:46;120.47;;;65.38;;
42876;SDS011;42341;40.498;72.818;2022-12-17T05:36:30;134.13;;;71.55;;
42876;SDS011;42341;40.498;72.818;2022-12-17T05:39:14;133.73;;;70.13;;
42876;SDS011;42341;40.498;72.818;2022-12-17T05:41:59;82.07;;;45.00;;
42876;SDS011;42341;40.498;72.818;2022-12-17T05:44:43;71.10;;;43.80;;
42876;SDS011;42341;40.498;72.818;2022-12-17T05:47:27;78.82;;;42.83;;
42876;SDS011;42341;40.498;72.818;2022-12-17T05:50:11;73.05;;;40.78;;
42876;SDS011;42341;40.498;72.818;2022-12-17T05:53:02;69.43;;;40.22;;
42876;SDS011;42341;40.498;72.818;2022-12-17T05:55:51;63.92;;;37.78;;
42876;SDS011;42341;40.498;72.818;2022-12-17T05:58:36;65.25;;;38.17;;
42876;SDS011;42341;40.498;72.818;2022-12-17T06:01:21;65.07;;;36.95;;
42876;SDS011;42341;40.498;72.818;2022-12-17T06:04:05;71.15;;;39.85;;
42876;SDS011;42341;40.498;72.818;2022-12-17T06:06:49;66.90;;;39.58;;
42876;SDS011;42341;40.498;72.818;2022-12-17T06:09:33;60.30;;;33.78;;
42876;SDS011;42341;40.498;72.818;2022-12-17T06:12:17;50.75;;;28.42;;
42876;SDS011;42341;40.498;72.818;2022-12-17T06:15:02;47.45;;;25.05;;
42876;SDS011;42341;40.498;72.818;2022-12-17T06:17:53;40.58;;;21.50;;
42876;SDS011;42341;40.498;72.818;2022-12-17T06:20:38;40.13;;;22.80;;
42876;SDS011;42341;40.498;72.818;2022-12-17T06:23:23;49.47;;;27.17;;
42876;SDS011;42341;40.498;72.818;2022-12-17T06:26:07;64.88;;;34.60;;
42876;SDS011;42341;40.498;72.818;2022-12-17T06:28:51;52.80;;;29.25;;
42876;SDS011;42341;40.498;72.818;2022-12-17T06:31:36;44.75;;;24.52;;
42876;SDS011;42341;40.498;72.818;2022-12-17T06:34:20;67.05;;;40.50;;
42876;SDS011;42341;40.498;72.818;2022-12-17T06:37:04;68.47;;;38.65;;
42876;SDS011;42341;40.498;72.818;2022-12-17T06:39:49;67.95;;;40.28;;
42876;SDS011;42341;40.498;72.818;2022-12-17T06:42:33;46.85;;;26.50;;
42876;SDS011;42341;40.498;72.818;2022-12-17T06:45:17;50.78;;;29.88;;
42876;SDS011;42341;40.498;72.818;2022-12-17T06:48:01;40.75;;;23.80;;
42876;SDS011;42341;40.498;72.818;2022-12-17T06:50:47;40.95;;;23.45;;
42876;SDS011;42341;40.498;72.818;2022-12-17T06:53:31;53.58;;;32.35;;
42876;SDS011;42341;40.498;72.818;2022-12-17T06:56:15;52.83;;;31.48;;
42876;SDS011;42341;40.498;72.818;2022-12-17T06:58:59;63.70;;;37.15;;
42876;SDS011;42341;40.498;72.818;2022-12-17T07:01:43;55.80;;;34.15;;
42876;SDS011;42341;40.498;72.818;2022-12-17T07:04:27;61.78;;;33.15;;
42876;SDS011;42341;40.498;72.818;2022-12-17T07:07:12;64.65;;;35.25;;
42876;SDS011;42341;40.498;72.818;2022-12-17T07:09:56;61.42;;;34.30;;
42876;SDS011;42341;40.498;72.818;2022-12-17T07:12:41;63.60;;;35.85;;
42876;SDS011;42341;40.498;72.818;2022-12-17T07:15:25;61.53;;;32.83;;
42876;SDS011;42341;40.498;72.818;2022-12-17T07:18:09;50.13;;;32.47;;
42876;SDS011;42341;40.498;72.818;2022-12-17T07:20:53;50.17;;;33.05;;
42876;SDS011;42341;40.498;72.818;2022-12-17T07:23:38;62.92;;;39.70;;
42876;SDS011;42341;40.498;72.818;2022-12-17T07:26:22;66.70;;;40.67;;
42876;SDS011;42341;40.498;72.818;2022-12-17T07:29:06;104.97;;;56.92;;
42876;SDS011;42341;40.498;72.818;2022-12-17T07:31:50;139.00;;;79.07;;
42876;SDS011;42341;40.498;72.818;2022-12-17T07:34:34;148.10;;;86.47;;
42876;SDS011;42341;40.498;72.818;2022-12-17T07:37:18;131.52;;;77.53;;
42876;SDS011;42341;40.498;72.818;2022-12-17T07:40:03;123.88;;;75.43;;
42876;SDS011;42341;40.498;72.818;2022-12-17T07:42:47;151.88;;;83.57;;
42876;SDS011;42341;40.498;72.818;2022-12-17T07:45:31;140.77;;;83.65;;
42876;SDS011;42341;40.498;72.818;2022-12-17T07:48:15;148.27;;;89.15;;
42876;SDS011;42341;40.498;72.818;2022-12-17T07:51:00;178.05;;;100.90;;
42876;SDS011;42341;40.498;72.818;2022-12-17T07:53:44;179.95;;;105.22;;
42876;SDS011;42341;40.498;72.818;2022-12-17T07:56:28;165.45;;;100.63;;
42876;SDS011;42341;40.498;72.818;2022-12-17T07:59:14;172.88;;;104.63;;
42876;SDS011;42341;40.498;72.818;2022-12-17T08:01:59;171.90;;;101.95;;
42876;SDS011;42341;40.498;72.818;2022-12-17T08:04:43;175.48;;;100.63;;
42876;SDS011;42341;40.498;72.818;2022-12-17T08:07:27;185.77;;;105.13;;
42876;SDS011;42341;40.498;72.818;2022-12-17T08:10:11;184.82;;;107.45;;
42876;SDS011;42341;40.498;72.818;2022-12-17T08:12:56;174.20;;;102.57;;
42876;SDS011;42341;40.498;72.818;2022-12-17T08:15:41;170.68;;;100.22;;
42876;SDS011;42341;40.498;72.818;2022-12-17T08:18:26;161.32;;;96.28;;
42876;SDS011;42341;40.498;72.818;2022-12-17T08:21:10;155.52;;;92.53;;
42876;SDS011;42341;40.498;72.818;2022-12-17T08:23:55;179.07;;;103.60;;
42876;SDS011;42341;40.498;72.818;2022-12-17T08:26:39;155.43;;;91.25;;
42876;SDS011;42341;40.498;72.818;2022-12-17T08:29:24;149.95;;;86.85;;
42876;SDS011;42341;40.498;72.818;2022-12-17T08:32:08;157.85;;;88.30;;
42876;SDS011;42341;40.498;72.818;2022-12-17T08:34:52;156.27;;;87.93;;
42876;SDS011;42341;40.498;72.818;2022-12-17T08:37:36;142.82;;;82.40;;
42876;SDS011;42341;40.498;72.818;2022-12-17T08:40:20;150.20;;;88.72;;
42876;SDS011;42341;40.498;72.818;2022-12-17T08:43:05;157.63;;;95.25;;
42876;SDS011;42341;40.498;72.818;2022-12-17T08:45:49;160.10;;;95.10;;
42876;SDS011;42341;40.498;72.818;2022-12-17T08:48:34;154.85;;;90.28;;
42876;SDS011;42341;40.498;72.818;2022-12-17T08:51:18;172.57;;;99.85;;
42876;SDS011;42341;40.498;72.818;2022-12-17T08:54:03;163.77;;;91.55;;
42876;SDS011;42341;40.498;72.818;2022-12-17T08:56:47;162.95;;;92.55;;
42876;SDS011;42341;40.498;72.818;2022-12-17T08:59:32;147.63;;;88.65;;
42876;SDS011;42341;40.498;72.818;2022-12-17T09:02:16;149.50;;;91.47;;
42876;SDS011;42341;40.498;72.818;2022-12-17T09:05:00;157.57;;;88.45;;
42876;SDS011;42341;40.498;72.818;2022-12-17T09:07:44;173.02;;;92.88;;
42876;SDS011;42341;40.498;72.818;2022-12-17T09:10:28;151.02;;;89.07;;
42876;SDS011;42341;40.498;72.818;2022-12-17T09:13:12;159.90;;;91.20;;
42876;SDS011;42341;40.498;72.818;2022-12-17T09:15:56;165.45;;;94.28;;
42876;SDS011;42341;40.498;72.818;2022-12-17T09:18:41;155.77;;;93.18;;
42876;SDS011;42341;40.498;72.818;2022-12-17T09:21:26;151.43;;;90.65;;
42876;SDS011;42341;40.498;72.818;2022-12-17T09:24:11;155.52;;;91.35;;
42876;SDS011;42341;40.498;72.818;2022-12-17T09:26:55;163.90;;;91.60;;
42876;SDS011;42341;40.498;72.818;2022-12-17T09:29:40;189.15;;;108.97;;
42876;SDS011;42341;40.498;72.818;2022-12-17T09:32:24;185.82;;;108.88;;
42876;SDS011;42341;40.498;72.818;2022-12-17T09:35:08;168.27;;;98.68;;
42876;SDS011;42341;40.498;72.818;2022-12-17T09:37:53;167.70;;;96.68;;
42876;SDS011;42341;40.498;72.818;2022-12-17T09:40:38;161.98;;;97.30;;
42876;SDS011;42341;40.498;72.818;2022-12-17T09:46:21;167.98;;;95.85;;
42876;SDS011;42341;40.498;72.818;2022-12-17T09:49:19;182.90;;;101.07;;
42876;SDS011;42341;40.498;72.818;2022-12-17T09:52:19;171.48;;;95.50;;
42876;SDS011;42341;40.498;72.818;2022-12-17T09:55:19;162.23;;;93.28;;
42876;SDS011;42341;40.498;72.818;2022-12-17T09:58:04;154.57;;;92.70;;
42876;SDS011;42341;40.498;72.818;2022-12-17T10:00:56;178.43;;;101.78;;
42876;SDS011;42341;40.498;72.818;2022-12-17T10:03:41;158.05;;;95.82;;
42876;SDS011;42341;40.498;72.818;2022-12-17T10:06:28;165.43;;;94.63;;
42876;SDS011;42341;40.498;72.818;2022-12-17T10:09:14;161.18;;;91.20;;
42876;SDS011;42341;40.498;72.818;2022-12-17T10:12:11;159.90;;;92.38;;
42876;SDS011;42341;40.498;72.818;2022-12-17T10:15:02;169.60;;;96.50;;
42876;SDS011;42341;40.498;72.818;2022-12-17T10:17:46;178.05;;;98.18;;
42876;SDS011;42341;40.498;72.818;2022-12-17T10:20:32;179.95;;;101.55;;
42876;SDS011;42341;40.498;72.818;2022-12-17T10:23:51;180.20;;;101.18;;
42876;SDS011;42341;40.498;72.818;2022-12-17T10:26:51;178.63;;;100.30;;
42876;SDS011;42341;40.498;72.818;2022-12-17T10:29:35;178.23;;;99.60;;
42876;SDS011;42341;40.498;72.818;2022-12-17T10:32:20;173.63;;;100.03;;
42876;SDS011;42341;40.498;72.818;2022-12-17T10:35:19;175.07;;;103.28;;
42876;SDS011;42341;40.498;72.818;2022-12-17T10:38:12;204.75;;;106.53;;
42876;SDS011;42341;40.498;72.818;2022-12-17T10:41:17;200.88;;;106.97;;
42876;SDS011;42341;40.498;72.818;2022-12-17T10:44:45;203.82;;;108.00;;
42876;SDS011;42341;40.498;72.818;2022-12-17T10:47:26;208.88;;;111.03;;
42876;SDS011;42341;40.498;72.818;2022-12-17T10:53:14;191.43;;;106.47;;
42876;SDS011;42341;40.498;72.818;2022-12-17T10:56:05;191.77;;;111.45;;
42876;SDS011;42341;40.498;72.818;2022-12-17T10:59:09;185.55;;;104.30;;
42876;SDS011;42341;40.498;72.818;2022-12-17T11:01:58;187.07;;;100.78;;
42876;SDS011;42341;40.498;72.818;2022-12-17T11:04:52;188.57;;;101.38;;
42876;SDS011;42341;40.498;72.818;2022-12-17T11:07:37;185.15;;;99.20;;
42876;SDS011;42341;40.498;72.818;2022-12-17T11:10:25;183.13;;;98.97;;
42876;SDS011;42341;40.498;72.818;2022-12-17T11:13:14;190.27;;;100.25;;
42876;SDS011;42341;40.498;72.818;2022-12-17T11:16:24;184.88;;;100.07;;
42876;SDS011;42341;40.498;72.818;2022-12-17T11:22:17;201.40;;;107.57;;
42876;SDS011;42341;40.498;72.818;2022-12-17T11:28:26;221.05;;;121.10;;
42876;SDS011;42341;40.498;72.818;2022-12-17T11:31:25;232.05;;;126.80;;
42876;SDS011;42341;40.498;72.818;2022-12-17T11:43:36;216.95;;;116.22;;
42876;SDS011;42341;40.498;72.818;2022-12-17T11:49:16;219.90;;;117.13;;
42876;SDS011;42341;40.498;72.818;2022-12-17T11:52:20;227.02;;;124.43;;
42876;SDS011;42341;40.498;72.818;2022-12-17T11:55:20;234.57;;;123.60;;
42876;SDS011;42341;40.498;72.818;2022-12-17T11:58:13;257.33;;;138.32;;
42876;SDS011;42341;40.498;72.818;2022-12-17T12:02:09;271.02;;;145.00;;
42876;SDS011;42341;40.498;72.818;2022-12-17T12:11:06;316.77;;;173.73;;
42876;SDS011;42341;40.498;72.818;2022-12-17T12:26:15;329.80;;;195.15;;
42876;SDS011;42341;40.498;72.818;2022-12-17T12:34:56;373.52;;;218.93;;
42876;SDS011;42341;40.498;72.818;2022-12-17T12:37:42;389.90;;;218.75;;
42876;SDS011;42341;40.498;72.818;2022-12-17T12:40:32;391.80;;;218.13;;
42876;SDS011;42341;40.498;72.818;2022-12-17T12:43:29;392.73;;;225.48;;
42876;SDS011;42341;40.498;72.818;2022-12-17T12:46:19;393.65;;;229.05;;
42876;SDS011;42341;40.498;72.818;2022-12-17T12:49:17;408.30;;;230.95;;
42876;SDS011;42341;40.498;72.818;2022-12-17T12:52:17;513.47;;;290.75;;
42876;SDS011;42341;40.498;72.818;2022-12-17T12:55:07;604.53;;;352.70;;
42876;SDS011;42341;40.498;72.818;2022-12-17T13:12:17;639.78;;;383.02;;
42876;SDS011;42341;40.498;72.818;2022-12-17T13:14:50;650.65;;;387.23;;
42876;SDS011;42341;40.498;72.818;2022-12-17T13:17:27;647.00;;;382.70;;
42876;SDS011;42341;40.498;72.818;2022-12-17T13:22:49;565.72;;;332.52;;
42876;SDS011;42341;40.498;72.818;2022-12-17T13:25:29;510.95;;;292.88;;
42876;SDS011;42341;40.498;72.818;2022-12-17T13:27:55;501.20;;;294.02;;
42876;SDS011;42341;40.498;72.818;2022-12-17T13:30:22;455.80;;;263.33;;
42876;SDS011;42341;40.498;72.818;2022-12-17T13:33:14;368.50;;;215.50;;
42876;SDS011;42341;40.498;72.818;2022-12-17T13:41:19;376.90;;;217.52;;
42876;SDS011;42341;40.498;72.818;2022-12-17T13:43:57;312.80;;;173.77;;
42876;SDS011;42341;40.498;72.818;2022-12-17T13:46:27;308.63;;;175.85;;
42876;SDS011;42341;40.498;72.818;2022-12-17T13:49:00;305.20;;;170.35;;
42876;SDS011;42341;40.498;72.818;2022-12-17T13:51:29;279.67;;;152.95;;
42876;SDS011;42341;40.498;72.818;2022-12-17T13:54:00;298.15;;;172.60;;
42876;SDS011;42341;40.498;72.818;2022-12-17T13:58:59;278.48;;;151.63;;
42876;SDS011;42341;40.498;72.818;2022-12-17T14:01:27;267.30;;;144.77;;
42876;SDS011;42341;40.498;72.818;2022-12-17T14:03:55;291.45;;;162.45;;
42876;SDS011;42341;40.498;72.818;2022-12-17T14:06:28;283.77;;;155.38;;
42876;SDS011;42341;40.498;72.818;2022-12-17T14:08:58;334.40;;;192.27;;
42876;SDS011;42341;40.498;72.818;2022-12-17T14:11:24;367.15;;;209.10;;
42876;SDS011;42341;40.498;72.818;2022-12-17T14:17:28;409.35;;;225.02;;
42876;SDS011;42341;40.498;72.818;2022-12-17T14:20:04;384.40;;;213.68;;
42876;SDS011;42341;40.498;72.818;2022-12-17T14:22:38;404.80;;;230.43;;
42876;SDS011;42341;40.498;72.818;2022-12-17T14:25:25;439.02;;;251.70;;
42876;SDS011;42341;40.498;72.818;2022-12-17T14:33:26;378.55;;;213.90;;
42876;SDS011;42341;40.498;72.818;2022-12-17T14:35:55;366.50;;;208.98;;
42876;SDS011;42341;40.498;72.818;2022-12-17T14:38:22;381.17;;;215.73;;
42876;SDS011;42341;40.498;72.818;2022-12-17T14:40:49;373.35;;;211.32;;
42876;SDS011;42341;40.498;72.818;2022-12-17T14:43:15;397.83;;;217.27;;
42876;SDS011;42341;40.498;72.818;2022-12-17T14:45:55;492.60;;;273.38;;
42876;SDS011;42341;40.498;72.818;2022-12-17T14:48:42;464.70;;;263.88;;
42876;SDS011;42341;40.498;72.818;2022-12-17T14:51:27;407.70;;;237.27;;
42876;SDS011;42341;40.498;72.818;2022-12-17T14:54:15;428.08;;;240.35;;
42876;SDS011;42341;40.498;72.818;2022-12-17T14:56:50;419.40;;;242.82;;
42876;SDS011;42341;40.498;72.818;2022-12-17T14:59:35;407.50;;;220.48;;
42876;SDS011;42341;40.498;72.818;2022-12-17T15:04:50;518.35;;;290.42;;
42876;SDS011;42341;40.498;72.818;2022-12-17T15:07:27;525.55;;;286.80;;
42876;SDS011;42341;40.498;72.818;2022-12-17T15:09:55;418.23;;;235.10;;
42876;SDS011;42341;40.498;72.818;2022-12-17T15:12:22;355.35;;;201.80;;
42876;SDS011;42341;40.498;72.818;2022-12-17T15:14:49;329.60;;;182.13;;
42876;SDS011;42341;40.498;72.818;2022-12-17T15:17:15;327.40;;;181.52;;
42876;SDS011;42341;40.498;72.818;2022-12-17T15:19:41;366.00;;;191.93;;
42876;SDS011;42341;40.498;72.818;2022-12-17T15:22:14;348.35;;;189.32;;
42876;SDS011;42341;40.498;72.818;2022-12-17T15:24:41;361.15;;;194.15;;
42876;SDS011;42341;40.498;72.818;2022-12-17T15:27:12;356.58;;;191.75;;
42876;SDS011;42341;40.498;72.818;2022-12-17T15:29:40;348.77;;;187.48;;
42876;SDS011;42341;40.498;72.818;2022-12-17T15:32:19;380.52;;;201.57;;
42876;SDS011;42341;40.498;72.818;2022-12-17T15:34:47;403.70;;;225.52;;
42876;SDS011;42341;40.498;72.818;2022-12-17T15:37:14;467.63;;;253.02;;
42876;SDS011;42341;40.498;72.818;2022-12-17T15:39:41;441.60;;;238.95;;
42876;SDS011;42341;40.498;72.818;2022-12-17T15:42:08;428.13;;;234.90;;
42876;SDS011;42341;40.498;72.818;2022-12-17T15:44:52;389.58;;;217.63;;
42876;SDS011;42341;40.498;72.818;2022-12-17T15:47:18;380.08;;;210.48;;
42876;SDS011;42341;40.498;72.818;2022-12-17T15:49:45;389.98;;;212.32;;
42876;SDS011;42341;40.498;72.818;2022-12-17T15:52:11;404.50;;;219.35;;
42876;SDS011;42341;40.498;72.818;2022-12-17T15:54:40;386.27;;;213.63;;
42876;SDS011;42341;40.498;72.818;2022-12-17T15:57:06;386.58;;;216.55;;
42876;SDS011;42341;40.498;72.818;2022-12-17T15:59:32;399.55;;;218.13;;
42876;SDS011;42341;40.498;72.818;2022-12-17T16:01:58;471.20;;;254.73;;
42876;SDS011;42341;40.498;72.818;2022-12-17T16:04:24;478.65;;;258.67;;
42876;SDS011;42341;40.498;72.818;2022-12-17T16:06:50;441.13;;;244.65;;
42876;SDS011;42341;40.498;72.818;2022-12-17T16:09:16;467.15;;;259.30;;
42876;SDS011;42341;40.498;72.818;2022-12-17T16:11:42;480.63;;;263.20;;
42876;SDS011;42341;40.498;72.818;2022-12-17T16:14:08;463.25;;;259.63;;
42876;SDS011;42341;40.498;72.818;2022-12-17T16:16:33;462.10;;;251.52;;
42876;SDS011;42341;40.498;72.818;2022-12-17T16:18:59;448.45;;;244.65;;
42876;SDS011;42341;40.498;72.818;2022-12-17T16:21:26;448.65;;;250.55;;
42876;SDS011;42341;40.498;72.818;2022-12-17T16:23:52;457.95;;;254.80;;
42876;SDS011;42341;40.498;72.818;2022-12-17T16:26:18;550.58;;;294.13;;
42876;SDS011;42341;40.498;72.818;2022-12-17T16:28:44;691.72;;;360.30;;
42876;SDS011;42341;40.498;72.818;2022-12-17T16:31:11;620.42;;;327.33;;
42876;SDS011;42341;40.498;72.818;2022-12-17T16:33:39;597.47;;;312.98;;
42876;SDS011;42341;40.498;72.818;2022-12-17T16:36:08;494.45;;;250.63;;
42876;SDS011;42341;40.498;72.818;2022-12-17T16:38:44;460.30;;;249.20;;
42876;SDS011;42341;40.498;72.818;2022-12-17T16:41:12;411.45;;;220.25;;
42876;SDS011;42341;40.498;72.818;2022-12-17T16:43:38;406.05;;;224.05;;
42876;SDS011;42341;40.498;72.818;2022-12-17T16:46:04;393.63;;;214.15;;
42876;SDS011;42341;40.498;72.818;2022-12-17T16:48:46;383.73;;;202.40;;
42876;SDS011;42341;40.498;72.818;2022-12-17T16:51:16;378.35;;;203.45;;
42876;SDS011;42341;40.498;72.818;2022-12-17T16:53:44;328.60;;;172.82;;
42876;SDS011;42341;40.498;72.818;2022-12-17T16:56:14;285.52;;;152.15;;